La Volante Frances Jane — WCY4641 — position and weather

sailwx.info

Track history (hours):
 
Tides and Currents Weather Stations Pressure Air Temp Water Temp Dewpoint Dewpoint Depression Visibility Wind Speed Wind Dir Waves Ship Positions

La Volante Frances Jane

Owner: AYERS, MICHAEL L, WOODINVILLE, WA. More information available from US FCC via Universal Licensing System.

Last reported at 2016-Jun-19 19:06 UTC. Time now 2016-Jun-26 20:57 UTC.
Position N 36°36' W 121°53'.

Length 12 m.

Type: Sailing vessel. MMSI: 366750980.

Date/timePositionNaut miles runAvg speedWind from/ knotsBaromVisibWave heightAir tempDewpointWater temp
2016-Jun-19 19:06N 36°36' W 121°53'0 0.0
2016-Jun-19 18:33N 36°36' W 121°53'0 0.1
2016-Jun-19 17:32N 36°36' W 121°53'0 0.0
2016-Jun-19 16:32N 36°36' W 121°53'0 0.0
2016-Jun-19 15:32N 36°36' W 121°53'0 0.0
2016-Jun-19 14:29N 36°36' W 121°53'0 0.0
2016-Jun-19 13:32N 36°36' W 121°53'0 0.0
2016-Jun-19 12:29N 36°36' W 121°53'0 0.0
2016-Jun-19 11:32N 36°36' W 121°53'0 0.0
2016-Jun-19 10:33N 36°36' W 121°53'7 2.7
2016-Jun-19 08:06N 36°33' W 122°00'3 5.2
2016-Jun-19 07:33N 36°30' W 122°01'4 4.2
2016-Jun-19 06:32N 36°26' W 122°02'4 4.1
2016-Jun-19 05:33N 36°22' W 122°02'5 4.8
2016-Jun-19 04:33N 36°17' W 122°02'5 4.6
2016-Jun-19 03:33N 36°14' W 121°57'5 5.3
2016-Jun-19 02:33N 36°09' W 121°57'5 5.1
2016-Jun-19 01:33N 36°08' W 121°51'4 4.1
2016-Jun-19 00:34N 36°08' W 121°46'2 2.3
2016-Jun-18 23:33N 36°06' W 121°45'3 2.7
2016-Jun-18 22:33N 36°03' W 121°43'2 1.6
2016-Jun-18 21:32N 36°02' W 121°43'3 2.6
2016-Jun-18 20:33N 35°59' W 121°42'68 2.2
2016-Jun-17 13:29N 35°10' W 120°44'0 0.1
2016-Jun-17 12:32N 35°10' W 120°44'0 0.0
2016-Jun-17 11:05N 35°10' W 120°44'0 0.0
2016-Jun-17 10:20N 35°10' W 120°44'0 0.0
2016-Jun-17 09:20N 35°10' W 120°44'0 0.0
2016-Jun-17 06:29N 35°10' W 120°44'0 0.0
2016-Jun-17 05:32N 35°10' W 120°44'0 0.0
2016-Jun-17 04:20N 35°10' W 120°44'  
Track history (hours):
 
Tides and Currents Weather Stations Pressure Air Temp Water Temp Dewpoint Dewpoint Depression Visibility Wind Speed Wind Dir Waves Ship Positions

La Volante Frances Jane

Owner: AYERS, MICHAEL L, WOODINVILLE, WA. More information available from US FCC via Universal Licensing System.

Last reported at 2016-Jun-19 19:06 UTC. Time now 2016-Jun-26 20:57 UTC.
Position N 36°36' W 121°53'.

Length 12 m.

Type: Sailing vessel. MMSI: 366750980.

Date/timePositionNaut miles runAvg speedWind from/ knotsBaromVisibWave heightAir tempDewpointWater temp
2016-Jun-19 19:06N 36°36' W 121°53'0 0.0
2016-Jun-19 18:33N 36°36' W 121°53'0 0.1
2016-Jun-19 17:32N 36°36' W 121°53'0 0.0
2016-Jun-19 16:32N 36°36' W 121°53'0 0.0
2016-Jun-19 15:32N 36°36' W 121°53'0 0.0
2016-Jun-19 14:29N 36°36' W 121°53'0 0.0
2016-Jun-19 13:32N 36°36' W 121°53'0 0.0
2016-Jun-19 12:29N 36°36' W 121°53'0 0.0
2016-Jun-19 11:32N 36°36' W 121°53'0 0.0
2016-Jun-19 10:33N 36°36' W 121°53'7 2.7
2016-Jun-19 08:06N 36°33' W 122°00'3 5.2
2016-Jun-19 07:33N 36°30' W 122°01'4 4.2
2016-Jun-19 06:32N 36°26' W 122°02'4 4.1
2016-Jun-19 05:33N 36°22' W 122°02'5 4.8
2016-Jun-19 04:33N 36°17' W 122°02'5 4.6
2016-Jun-19 03:33N 36°14' W 121°57'5 5.3
2016-Jun-19 02:33N 36°09' W 121°57'5 5.1
2016-Jun-19 01:33N 36°08' W 121°51'4 4.1
2016-Jun-19 00:34N 36°08' W 121°46'2 2.3
2016-Jun-18 23:33N 36°06' W 121°45'3 2.7
2016-Jun-18 22:33N 36°03' W 121°43'2 1.6
2016-Jun-18 21:32N 36°02' W 121°43'3 2.6
2016-Jun-18 20:33N 35°59' W 121°42'68 2.2
2016-Jun-17 13:29N 35°10' W 120°44'0 0.1
2016-Jun-17 12:32N 35°10' W 120°44'0 0.0
2016-Jun-17 11:05N 35°10' W 120°44'0 0.0
2016-Jun-17 10:20N 35°10' W 120°44'0 0.0
2016-Jun-17 09:20N 35°10' W 120°44'0 0.0
2016-Jun-17 06:29N 35°10' W 120°44'0 0.0
2016-Jun-17 05:32N 35°10' W 120°44'0 0.0
2016-Jun-17 04:20N 35°10' W 120°44'  

Dump ship's entire track history